createdAt,value
2022-09-10T00:00:44.439Z,18.31
2022-09-10T00:03:11.791Z,18.47
2022-09-10T00:05:44.126Z,18.03
2022-09-10T00:08:11.418Z,17.70
2022-09-10T00:10:47.971Z,18.01
2022-09-10T00:13:17.313Z,18.23
2022-09-10T00:15:50.172Z,18.39
2022-09-10T00:18:19.501Z,18.49
2022-09-10T00:20:54.818Z,17.82
2022-09-10T00:23:25.867Z,17.75
2022-09-10T00:25:55.162Z,17.77
2022-09-10T00:28:24.269Z,17.81
2022-09-10T00:30:54.563Z,17.62
2022-09-10T00:33:22.986Z,17.74
2022-09-10T00:35:51.261Z,17.78
2022-09-10T00:38:18.713Z,17.84
2022-09-10T00:40:46.876Z,17.88
2022-09-10T00:43:16.860Z,17.96
2022-09-10T00:45:44.755Z,17.71
2022-09-10T00:48:16.692Z,17.56
2022-09-10T00:50:46.518Z,17.79
2022-09-10T00:53:16.448Z,17.98
2022-09-10T00:55:45.533Z,17.85
2022-09-10T00:58:14.013Z,17.80
2022-09-10T01:00:42.027Z,17.88
2022-09-10T01:03:11.313Z,17.98
2022-09-10T01:05:42.496Z,18.04
2022-09-10T01:08:15.206Z,18.18
2022-09-10T01:11:16.515Z,17.82
2022-09-10T01:14:15.685Z,17.72
2022-09-10T01:16:53.597Z,17.97
2022-09-10T01:19:32.810Z,17.94
2022-09-10T01:22:22.472Z,17.82
2022-09-10T01:24:54.517Z,17.73
2022-09-10T01:27:30.954Z,17.81
2022-09-10T01:30:04.438Z,18.04
2022-09-10T01:32:39.905Z,17.94
2022-09-10T01:35:22.302Z,17.84
2022-09-10T01:37:54.594Z,17.93
2022-09-10T01:40:29.703Z,18.04
2022-09-10T01:43:07.378Z,18.03
2022-09-10T01:45:58.022Z,17.96
2022-09-10T01:48:56.024Z,18.12
2022-09-10T01:51:26.380Z,18.26
2022-09-10T01:54:26.305Z,18.35
2022-09-10T01:57:05.124Z,18.06
2022-09-10T01:59:46.965Z,18.26
2022-09-10T02:02:37.531Z,17.86
2022-09-10T02:05:06.252Z,18.02
2022-09-10T02:07:35.467Z,17.89
2022-09-10T02:10:07.358Z,17.80
2022-09-10T02:12:40.070Z,17.66
2022-09-10T02:15:34.813Z,17.82
2022-09-10T02:18:22.403Z,17.55
2022-09-10T02:20:51.705Z,17.80
2022-09-10T02:23:46.517Z,18.01
2022-09-10T02:26:14.930Z,17.85
2022-09-10T02:28:45.537Z,17.64
2022-09-10T02:31:13.326Z,18.05
2022-09-10T02:33:41.289Z,17.91
2022-09-10T02:36:08.644Z,17.86
2022-09-10T02:38:35.944Z,17.83
2022-09-10T02:41:03.480Z,18.02
2022-09-10T02:43:31.854Z,17.81
2022-09-10T02:46:02.370Z,17.76
2022-09-10T02:48:31.069Z,17.82
2022-09-10T02:50:58.878Z,18.14
2022-09-10T02:53:29.325Z,17.91
2022-09-10T02:55:58.484Z,17.80
2022-09-10T02:58:25.807Z,17.60
2022-09-10T03:00:53.432Z,18.01
2022-09-10T03:03:20.703Z,17.51
2022-09-10T03:05:48.366Z,17.54
2022-09-10T03:08:16.036Z,17.45
2022-09-10T03:10:46.014Z,17.72
2022-09-10T03:13:13.150Z,17.74
2022-09-10T03:15:42.459Z,18.07
2022-09-10T03:18:10.048Z,17.82
2022-09-10T03:20:41.867Z,17.98
2022-09-10T03:23:11.327Z,17.99
2022-09-10T03:25:38.765Z,17.96
2022-09-10T03:28:08.196Z,18.11
2022-09-10T03:30:36.580Z,18.12
2022-09-10T03:33:04.735Z,18.01
2022-09-10T03:35:32.175Z,17.99
2022-09-10T03:38:02.384Z,18.20
2022-09-10T03:40:29.700Z,18.21
2022-09-10T03:42:57.109Z,18.27
2022-09-10T03:45:24.467Z,17.96
2022-09-10T03:47:51.991Z,17.94
2022-09-10T03:50:20.402Z,18.29
2022-09-10T03:52:47.647Z,18.41
2022-09-10T03:55:17.912Z,18.31
2022-09-10T03:57:46.032Z,18.14
2022-09-10T04:00:15.411Z,18.06
2022-09-10T04:02:44.102Z,17.95
2022-09-10T04:05:12.970Z,17.97
2022-09-10T04:07:40.486Z,18.29
2022-09-10T04:10:08.193Z,17.81
2022-09-10T04:12:36.365Z,18.02
2022-09-10T04:15:06.406Z,18.40
2022-09-10T04:17:34.871Z,18.08
2022-09-10T04:20:02.997Z,17.99
2022-09-10T04:22:35.817Z,18.00
2022-09-10T04:25:03.808Z,17.90
2022-09-10T04:27:31.739Z,17.85
2022-09-10T04:29:58.994Z,17.92
2022-09-10T04:32:26.263Z,17.88
2022-09-10T04:34:54.321Z,18.03
2022-09-10T04:37:21.932Z,17.96
2022-09-10T04:39:49.421Z,17.89
2022-09-10T04:42:17.933Z,17.64
2022-09-10T04:44:49.484Z,17.71
2022-09-10T04:47:17.321Z,18.08
2022-09-10T04:49:44.647Z,18.32
2022-09-10T04:52:13.334Z,18.15
2022-09-10T04:54:40.782Z,18.25
2022-09-10T04:57:08.515Z,17.88
2022-09-10T04:59:36.567Z,17.92
2022-09-10T05:02:04.003Z,18.26
2022-09-10T05:04:31.229Z,18.24
2022-09-10T05:07:01.446Z,18.02
2022-09-10T05:09:31.364Z,18.05
2022-09-10T05:12:01.177Z,18.38
2022-09-10T05:14:29.490Z,18.22
2022-09-10T05:16:57.584Z,18.08
2022-09-10T05:19:25.268Z,17.79
2022-09-10T05:22:00.215Z,17.83
2022-09-10T05:24:27.430Z,18.14
2022-09-10T05:26:56.898Z,18.31
2022-09-10T05:29:24.359Z,18.51
2022-09-10T05:31:52.012Z,18.11
2022-09-10T05:34:20.482Z,18.10
2022-09-10T05:36:48.794Z,18.16
2022-09-10T05:39:16.469Z,18.09
2022-09-10T05:41:43.966Z,18.27
2022-09-10T05:44:11.302Z,18.20
2022-09-10T05:46:40.476Z,18.18
2022-09-10T05:49:13.447Z,18.20
2022-09-10T05:51:41.573Z,18.24
2022-09-10T05:54:09.606Z,18.34
2022-09-10T05:56:37.050Z,18.39
2022-09-10T05:59:04.431Z,18.30
2022-09-10T06:01:33.318Z,18.20
2022-09-10T06:04:03.032Z,18.21
2022-09-10T06:06:31.058Z,18.30
2022-09-10T06:09:04.475Z,18.33
2022-09-10T06:11:42.991Z,18.29
2022-09-10T06:14:10.983Z,18.35
2022-09-10T06:16:38.267Z,18.03
2022-09-10T06:19:08.364Z,17.94
2022-09-10T06:21:36.761Z,18.14
2022-09-10T06:24:04.730Z,18.07
2022-09-10T06:26:37.519Z,18.07
2022-09-10T06:29:10.065Z,18.02
2022-09-10T06:31:38.792Z,18.17
2022-09-10T06:34:07.514Z,18.19
2022-09-10T06:36:35.139Z,18.27
2022-09-10T06:39:03.652Z,18.36
2022-09-10T06:41:45.846Z,18.45
2022-09-10T06:44:31.649Z,18.41
2022-09-10T06:47:55.463Z,18.54
2022-09-10T06:50:00.452Z,18.77
2022-09-10T06:52:29.471Z,18.72
2022-09-10T06:55:02.131Z,18.92
2022-09-10T06:57:38.130Z,18.91
2022-09-10T07:00:06.054Z,18.88
2022-09-10T07:02:34.146Z,19.04
2022-09-10T07:05:01.581Z,19.02
2022-09-10T07:07:30.422Z,18.98
2022-09-10T07:09:58.338Z,19.14
2022-09-10T07:12:25.907Z,19.12
2022-09-10T07:14:53.396Z,18.97
2022-09-10T07:17:22.087Z,19.12
2022-09-10T07:19:49.371Z,19.00
2022-09-10T07:22:38.023Z,18.85
2022-09-10T07:25:08.709Z,18.80
2022-09-10T07:27:52.620Z,19.10
2022-09-10T07:30:22.254Z,18.85
2022-09-10T07:32:50.961Z,19.00
2022-09-10T07:35:23.073Z,19.04
2022-09-10T07:37:51.388Z,19.00
2022-09-10T07:40:20.278Z,19.16
2022-09-10T07:42:47.836Z,19.31
2022-09-10T07:45:16.170Z,18.90
2022-09-10T07:47:44.720Z,18.98
2022-09-10T07:50:13.102Z,19.02
2022-09-10T07:52:41.467Z,19.21
2022-09-10T07:55:10.036Z,18.99
2022-09-10T07:57:39.759Z,19.20
2022-09-10T08:00:14.930Z,19.15
2022-09-10T08:02:50.286Z,19.14
2022-09-10T08:05:20.423Z,19.17
2022-09-10T08:07:48.242Z,18.68
2022-09-10T08:10:15.835Z,18.79
2022-09-10T08:12:43.889Z,18.48
2022-09-10T08:15:12.831Z,18.66
2022-09-10T08:17:41.479Z,18.75
2022-09-10T08:20:10.218Z,18.78
2022-09-10T08:22:40.878Z,19.12
2022-09-10T08:25:08.393Z,19.04
2022-09-10T08:27:37.299Z,19.13
2022-09-10T08:30:07.296Z,19.24
2022-09-10T08:32:35.982Z,19.42
2022-09-10T08:35:05.015Z,19.55
2022-09-10T08:37:33.888Z,19.32
2022-09-10T08:40:03.260Z,19.60
2022-09-10T08:42:37.006Z,19.67
2022-09-10T08:45:07.225Z,19.24
2022-09-10T08:47:36.147Z,19.27
2022-09-10T08:50:15.673Z,19.21
2022-09-10T08:52:44.392Z,19.57
2022-09-10T08:55:19.845Z,19.71
2022-09-10T08:57:59.349Z,19.74
2022-09-10T09:00:33.181Z,19.78
2022-09-10T09:03:13.053Z,19.65
2022-09-10T09:05:46.821Z,19.51
2022-09-10T09:08:27.619Z,19.44
2022-09-10T09:11:11.196Z,19.47
2022-09-10T09:14:03.193Z,19.42
2022-09-10T09:17:11.124Z,19.22
2022-09-10T09:19:54.298Z,19.13
2022-09-10T09:22:42.049Z,19.30
2022-09-10T09:25:27.225Z,19.14
2022-09-10T09:27:58.683Z,18.95
2022-09-10T09:30:35.602Z,18.81
2022-09-10T09:33:13.002Z,19.01
2022-09-10T09:35:53.109Z,19.09
2022-09-10T09:38:28.677Z,19.09
2022-09-10T09:41:00.826Z,19.03
2022-09-10T09:43:31.407Z,18.84
2022-09-10T09:46:00.173Z,19.00
2022-09-10T09:48:38.317Z,18.99
2022-09-10T09:51:08.783Z,19.20
2022-09-10T09:53:36.190Z,19.40
2022-09-10T09:56:18.273Z,19.25
2022-09-10T09:58:49.533Z,19.26
2022-09-10T10:01:19.490Z,19.10
2022-09-10T10:03:51.645Z,19.15
2022-09-10T10:06:24.779Z,19.07
2022-09-10T10:09:00.491Z,19.16
2022-09-10T10:11:50.273Z,19.31
2022-09-10T10:14:20.561Z,19.25
2022-09-10T10:16:52.309Z,19.25
2022-09-10T10:19:35.804Z,19.17
2022-09-10T10:22:18.214Z,19.43
2022-09-10T10:24:47.483Z,19.09
2022-09-10T10:27:32.063Z,19.17
2022-09-10T10:30:04.382Z,19.20
2022-09-10T10:32:44.791Z,19.01
2022-09-10T10:35:12.047Z,18.93
2022-09-10T10:38:04.033Z,19.08
2022-09-10T10:40:38.607Z,18.84
2022-09-10T10:43:26.400Z,18.90
2022-09-10T10:46:01.593Z,18.84
2022-09-10T10:49:06.110Z,18.90
2022-09-10T10:51:53.912Z,19.05
2022-09-10T10:54:43.713Z,19.16
2022-09-10T10:57:25.511Z,18.90
2022-09-10T11:00:07.674Z,19.01
2022-09-10T11:02:43.602Z,19.08
2022-09-10T11:05:18.825Z,19.32
2022-09-10T11:07:47.429Z,19.24
2022-09-10T11:10:27.246Z,19.08
2022-09-10T11:13:06.947Z,19.19
2022-09-10T11:15:37.296Z,19.12
2022-09-10T11:18:13.474Z,19.20
2022-09-10T11:20:59.264Z,19.45
2022-09-10T11:23:29.784Z,19.22
2022-09-10T11:26:19.503Z,19.32
2022-09-10T11:28:55.700Z,19.55
2022-09-10T11:32:10.446Z,19.68
2022-09-10T11:35:04.437Z,20.03
2022-09-10T11:38:08.994Z,20.10
2022-09-10T11:40:42.100Z,20.12
2022-09-10T11:43:43.451Z,19.75
2022-09-10T11:46:16.826Z,19.61
2022-09-10T11:48:51.096Z,19.95
2022-09-10T11:51:30.515Z,19.96
2022-09-10T11:53:58.138Z,19.63
2022-09-10T11:56:49.917Z,19.11
2022-09-10T11:59:27.084Z,19.05
2022-09-10T12:02:03.695Z,19.51
2022-09-10T12:04:47.704Z,19.95
2022-09-10T12:07:42.461Z,20.28
2022-09-10T12:10:32.869Z,20.71
2022-09-10T12:13:00.710Z,20.91
2022-09-10T12:15:34.493Z,20.09
2022-09-10T12:18:04.312Z,19.90
2022-09-10T12:20:34.745Z,19.95
2022-09-10T12:23:02.251Z,20.61
2022-09-10T12:25:34.338Z,20.48
2022-09-10T12:28:06.418Z,20.41
2022-09-10T12:30:33.677Z,20.45
2022-09-10T12:33:12.925Z,20.82
2022-09-10T12:35:48.343Z,20.72
2022-09-10T12:38:55.099Z,21.00
2022-09-10T12:41:25.198Z,21.19
2022-09-10T12:43:56.068Z,21.42
2022-09-10T12:46:25.425Z,21.41
2022-09-10T12:48:56.110Z,21.57
2022-09-10T12:51:46.229Z,21.70
2022-09-10T12:54:22.529Z,21.62
2022-09-10T12:57:17.456Z,21.57
2022-09-10T13:00:12.405Z,21.38
2022-09-10T13:02:48.008Z,20.19
2022-09-10T13:05:19.329Z,20.17
2022-09-10T13:07:49.202Z,20.51
2022-09-10T13:10:25.324Z,21.09
2022-09-10T13:12:55.710Z,21.37
2022-09-10T13:15:25.742Z,21.63
2022-09-10T13:17:53.912Z,21.68
2022-09-10T13:20:21.032Z,21.75
2022-09-10T13:23:15.614Z,21.84
2022-09-10T13:25:44.838Z,21.98
2022-09-10T13:28:30.475Z,21.93
2022-09-10T13:31:11.277Z,21.72
2022-09-10T13:33:51.213Z,21.55
2022-09-10T13:36:49.392Z,21.47
2022-09-10T13:39:23.700Z,21.71
2022-09-10T13:42:15.076Z,21.50
2022-09-10T13:45:20.918Z,21.18
2022-09-10T13:47:53.621Z,21.27
2022-09-10T13:50:28.752Z,21.14
2022-09-10T13:52:58.807Z,21.03
2022-09-10T13:55:28.555Z,20.58
2022-09-10T13:58:01.431Z,20.26
2022-09-10T14:00:40.982Z,19.79
2022-09-10T14:03:16.637Z,20.00
2022-09-10T14:05:48.151Z,20.05
2022-09-10T14:08:31.397Z,19.28
2022-09-10T14:11:07.700Z,19.56
2022-09-10T14:13:43.624Z,19.73
2022-09-10T14:16:12.799Z,18.93
2022-09-10T14:18:48.368Z,18.72
2022-09-10T14:21:17.968Z,18.66
2022-09-10T14:23:46.960Z,18.47
2022-09-10T14:26:19.877Z,18.15
2022-09-10T14:28:56.291Z,18.29
2022-09-10T14:31:30.078Z,18.27
2022-09-10T14:33:59.434Z,18.26
2022-09-10T14:36:31.552Z,17.91
2022-09-10T14:39:22.704Z,17.95
2022-09-10T14:42:21.797Z,18.50
2022-09-10T14:44:49.778Z,18.92
2022-09-10T14:47:29.959Z,18.59
2022-09-10T14:50:27.172Z,19.04
2022-09-10T14:52:55.410Z,19.25
2022-09-10T14:55:25.264Z,19.48
2022-09-10T14:57:54.175Z,19.63
2022-09-10T15:00:22.427Z,19.59
2022-09-10T15:02:55.903Z,19.69
2022-09-10T15:05:24.687Z,19.56
2022-09-10T15:07:51.857Z,19.69
2022-09-10T15:10:19.171Z,19.76
2022-09-10T15:12:49.801Z,19.73
2022-09-10T15:15:17.782Z,19.94
2022-09-10T15:17:45.264Z,19.92
2022-09-10T15:20:14.614Z,19.97
2022-09-10T15:22:41.829Z,20.02
2022-09-10T15:25:26.056Z,20.17
2022-09-10T15:27:53.374Z,20.08
2022-09-10T15:30:20.924Z,20.09
2022-09-10T15:32:48.204Z,20.21
2022-09-10T15:35:15.572Z,20.53
2022-09-10T15:37:42.749Z,20.64
2022-09-10T15:40:11.017Z,20.39
2022-09-10T15:42:38.293Z,20.17
2022-09-10T15:45:05.883Z,20.30
2022-09-10T15:47:33.606Z,20.20
2022-09-10T15:50:00.996Z,19.68
2022-09-10T15:52:28.200Z,19.54
2022-09-10T15:54:55.426Z,19.48
2022-09-10T15:57:22.755Z,19.64
2022-09-10T15:59:50.207Z,19.57
2022-09-10T16:02:18.423Z,19.56
2022-09-10T16:04:45.622Z,19.30
2022-09-10T16:07:14.437Z,19.43
2022-09-10T16:09:43.489Z,19.24
2022-09-10T16:12:10.859Z,19.10
2022-09-10T16:14:38.271Z,19.66
2022-09-10T16:17:10.570Z,19.57
2022-09-10T16:19:38.678Z,19.59
2022-09-10T16:22:06.133Z,19.95
2022-09-10T16:24:33.489Z,19.92
2022-09-10T16:27:00.768Z,19.65
2022-09-10T16:29:32.398Z,19.40
2022-09-10T16:32:00.262Z,19.49
2022-09-10T16:34:27.513Z,19.53
2022-09-10T16:36:54.907Z,19.62
2022-09-10T16:39:22.312Z,19.42
2022-09-10T16:41:50.738Z,18.97
2022-09-10T16:44:18.558Z,18.42
2022-09-10T16:46:47.183Z,18.62
2022-09-10T16:49:18.144Z,18.66
2022-09-10T16:51:46.775Z,18.74
2022-09-10T16:54:14.953Z,19.18
2022-09-10T16:56:44.121Z,19.54
2022-09-10T16:59:31.726Z,19.60
2022-09-10T17:02:00.573Z,19.71
2022-09-10T17:04:29.128Z,19.71
2022-09-10T17:06:57.648Z,19.93
2022-09-10T17:09:25.232Z,20.03
2022-09-10T17:11:56.120Z,20.15
2022-09-10T17:14:24.409Z,19.80
2022-09-10T17:16:52.221Z,20.05
2022-09-10T17:19:23.440Z,20.14
2022-09-10T17:21:53.292Z,20.22
2022-09-10T17:24:22.451Z,20.27
2022-09-10T17:26:50.441Z,20.48
2022-09-10T17:29:20.282Z,20.44
2022-09-10T17:31:47.605Z,20.42
2022-09-10T17:34:16.280Z,20.34
2022-09-10T17:36:45.707Z,20.48
2022-09-10T17:39:13.686Z,20.01
2022-09-10T17:41:41.479Z,19.77
2022-09-10T17:44:09.835Z,19.70
2022-09-10T17:46:37.946Z,19.98
2022-09-10T17:49:05.538Z,20.25
2022-09-10T17:51:34.634Z,20.31
2022-09-10T17:54:04.845Z,19.93
2022-09-10T17:56:31.990Z,19.78
2022-09-10T17:59:01.627Z,19.87
2022-09-10T18:01:34.240Z,19.71
2022-09-10T18:04:01.784Z,19.60
2022-09-10T18:06:29.236Z,19.55
2022-09-10T18:09:03.550Z,19.72
2022-09-10T18:11:33.003Z,19.91
2022-09-10T18:14:01.233Z,19.84
2022-09-10T18:16:31.176Z,19.61
2022-09-10T18:19:04.370Z,19.73
2022-09-10T18:21:34.051Z,19.74
2022-09-10T18:24:07.973Z,19.60
2022-09-10T18:26:39.403Z,19.59
2022-09-10T18:29:10.170Z,19.55
2022-09-10T18:31:41.273Z,19.49
2022-09-10T18:34:12.443Z,19.66
2022-09-10T18:36:39.814Z,19.66
2022-09-10T18:39:10.697Z,19.47
2022-09-10T18:41:39.891Z,19.18
2022-09-10T18:44:10.891Z,19.36
2022-09-10T18:46:38.368Z,19.41
2022-09-10T18:49:05.713Z,19.28
2022-09-10T18:51:33.070Z,19.23
2022-09-10T18:54:01.127Z,19.31
2022-09-10T18:56:30.587Z,19.32
2022-09-10T18:59:06.990Z,19.34
2022-09-10T19:01:35.882Z,19.36
2022-09-10T19:04:05.778Z,19.25
2022-09-10T19:06:35.268Z,19.28
2022-09-10T19:09:05.751Z,19.00
2022-09-10T19:11:38.147Z,18.81
2022-09-10T19:14:08.797Z,18.94
2022-09-10T19:16:36.115Z,18.91
2022-09-10T19:19:06.004Z,18.94
2022-09-10T19:21:35.335Z,19.03
2022-09-10T19:24:03.687Z,19.18
2022-09-10T19:26:34.768Z,19.00
2022-09-10T19:29:02.810Z,19.00
2022-09-10T19:31:33.944Z,19.08
2022-09-10T19:34:04.150Z,19.17
2022-09-10T19:36:33.416Z,19.03
2022-09-10T19:39:01.792Z,19.08
2022-09-10T19:41:29.032Z,18.82
2022-09-10T19:43:56.675Z,18.67
2022-09-10T19:46:28.154Z,18.87
2022-09-10T19:48:59.384Z,18.93
2022-09-10T19:51:28.695Z,19.00
2022-09-10T19:53:56.198Z,18.77
2022-09-10T19:56:26.033Z,18.87
2022-09-10T19:58:55.662Z,18.87
2022-09-10T20:01:25.736Z,18.74
2022-09-10T20:03:54.032Z,18.94
2022-09-10T20:06:23.861Z,18.89
2022-09-10T20:08:52.373Z,18.88
2022-09-10T20:11:21.869Z,19.04
2022-09-10T20:13:49.561Z,19.00
2022-09-10T20:16:17.034Z,19.00
2022-09-10T20:18:45.592Z,18.94
2022-09-10T20:21:24.972Z,19.01
2022-09-10T20:23:55.574Z,18.93
2022-09-10T20:26:23.943Z,19.01
2022-09-10T20:28:53.622Z,19.06
2022-09-10T20:31:22.196Z,18.83
2022-09-10T20:33:54.626Z,18.99
2022-09-10T20:36:23.005Z,19.12
2022-09-10T20:38:51.777Z,19.31
2022-09-10T20:41:19.305Z,19.15
2022-09-10T20:43:53.445Z,18.96
2022-09-10T20:46:22.379Z,19.05
2022-09-10T20:48:52.222Z,18.91
2022-09-10T20:51:20.579Z,18.97
2022-09-10T20:53:48.524Z,18.94
2022-09-10T20:56:18.519Z,18.92
2022-09-10T20:58:46.662Z,18.94
2022-09-10T21:01:23.191Z,18.84
2022-09-10T21:03:54.780Z,19.03
2022-09-10T21:06:25.173Z,18.98
2022-09-10T21:08:52.622Z,18.82
2022-09-10T21:11:21.029Z,19.00
2022-09-10T21:13:55.965Z,18.87
2022-09-10T21:16:28.534Z,19.07
2022-09-10T21:19:00.944Z,19.02
2022-09-10T21:21:30.257Z,18.78
2022-09-10T21:23:59.341Z,18.83
2022-09-10T21:26:32.620Z,18.90
2022-09-10T21:29:02.344Z,18.71
2022-09-10T21:31:30.402Z,18.57
2022-09-10T21:34:02.655Z,18.69
2022-09-10T21:36:32.084Z,18.81
2022-09-10T21:39:01.207Z,18.97
2022-09-10T21:41:35.535Z,18.93
2022-09-10T21:44:05.993Z,18.88
2022-09-10T21:46:34.298Z,18.90
2022-09-10T21:49:02.417Z,18.68
2022-09-10T21:51:29.790Z,18.65
2022-09-10T21:53:57.861Z,18.56
2022-09-10T21:56:27.526Z,18.76
2022-09-10T21:58:56.604Z,18.80
2022-09-10T22:01:26.426Z,18.77
2022-09-10T22:03:56.372Z,18.67
2022-09-10T22:06:25.955Z,18.60
2022-09-10T22:08:58.417Z,18.29
2022-09-10T22:11:32.091Z,18.50
2022-09-10T22:14:01.612Z,18.45
2022-09-10T22:16:31.122Z,18.46
2022-09-10T22:19:01.198Z,18.51
2022-09-10T22:21:29.016Z,18.40
2022-09-10T22:23:56.254Z,18.44
2022-09-10T22:26:25.484Z,18.55
2022-09-10T22:28:54.290Z,18.43
2022-09-10T22:31:27.290Z,18.53
2022-09-10T22:33:57.106Z,18.58
2022-09-10T22:36:28.701Z,18.82
2022-09-10T22:38:59.301Z,18.39
2022-09-10T22:41:27.119Z,18.26
2022-09-10T22:43:54.852Z,18.22
2022-09-10T22:46:23.691Z,18.30
2022-09-10T22:48:51.129Z,18.27
2022-09-10T22:51:23.308Z,18.25
2022-09-10T22:53:52.543Z,18.48
2022-09-10T22:56:22.156Z,18.39
2022-09-10T22:58:52.833Z,18.10
2022-09-10T23:01:23.012Z,18.22
2022-09-10T23:03:50.644Z,18.31
2022-09-10T23:06:22.482Z,18.24
2022-09-10T23:08:54.669Z,17.83
2022-09-10T23:11:27.371Z,17.96
2022-09-10T23:14:01.404Z,18.06
2022-09-10T23:16:31.859Z,18.08
2022-09-10T23:19:01.324Z,18.17
2022-09-10T23:21:30.221Z,18.18
2022-09-10T23:24:00.439Z,18.21
2022-09-10T23:26:27.800Z,18.23
2022-09-10T23:28:55.586Z,18.24
2022-09-10T23:31:27.457Z,18.16
2022-09-10T23:33:59.899Z,17.98
2022-09-10T23:36:29.891Z,18.06
2022-09-10T23:39:01.424Z,18.16
2022-09-10T23:41:29.867Z,17.93
2022-09-10T23:43:57.401Z,17.91
2022-09-10T23:46:25.383Z,17.47
2022-09-10T23:48:52.665Z,17.70
2022-09-10T23:51:20.833Z,17.80
2022-09-10T23:53:48.753Z,17.95
2022-09-10T23:56:19.005Z,18.04
2022-09-10T23:58:47.690Z,17.95
